createdAt,value
2023-05-19T00:02:05.626Z,102774.75
2023-05-19T00:04:33.613Z,102772.88
2023-05-19T00:07:01.968Z,102775.28
2023-05-19T00:09:28.791Z,102767.09
2023-05-19T00:11:56.773Z,102763.50
2023-05-19T00:14:23.675Z,102760.78
2023-05-19T00:16:50.583Z,102765.69
2023-05-19T00:19:17.750Z,102771.97
2023-05-19T00:21:44.351Z,102770.31
2023-05-19T00:24:11.057Z,102762.34
2023-05-19T00:26:37.641Z,102773.53
2023-05-19T00:29:04.239Z,102765.34
2023-05-19T00:31:31.777Z,102764.25
2023-05-19T00:33:58.392Z,102769.16
2023-05-19T00:36:25.096Z,102764.75
2023-05-19T00:38:51.945Z,102773.19
2023-05-19T00:41:18.567Z,102773.19
2023-05-19T00:43:45.154Z,102779.75
2023-05-19T00:46:11.800Z,102777.00
2023-05-19T00:48:38.418Z,102769.88
2023-05-19T00:51:06.542Z,102770.72
2023-05-19T00:53:34.152Z,102764.66
2023-05-19T00:56:02.307Z,102758.63
2023-05-19T00:58:31.198Z,102759.69
2023-05-19T01:01:04.077Z,102756.16
2023-05-19T01:03:32.887Z,102759.69
2023-05-19T01:06:04.988Z,102761.59
2023-05-19T01:08:38.935Z,102755.31
2023-05-19T01:11:06.942Z,102758.31
2023-05-19T01:13:35.518Z,102762.91
2023-05-19T01:16:14.109Z,102760.19
2023-05-19T01:18:46.532Z,102747.38
2023-05-19T01:21:25.114Z,102745.97
2023-05-19T01:23:56.977Z,102748.09
2023-05-19T01:26:42.729Z,102753.56
2023-05-19T01:29:28.509Z,102755.47
2023-05-19T01:32:00.334Z,102745.91
2023-05-19T01:34:27.747Z,102749.44
2023-05-19T01:36:55.794Z,102740.44
2023-05-19T01:39:23.779Z,102740.44
2023-05-19T01:41:51.711Z,102747.78
2023-05-19T01:44:19.105Z,102740.66
2023-05-19T01:46:45.810Z,102744.22
2023-05-19T01:49:13.731Z,102737.59
2023-05-19T01:51:41.164Z,102737.59
2023-05-19T01:54:07.861Z,102742.25
2023-05-19T01:56:46.243Z,102737.88
2023-05-19T01:59:33.170Z,102728.00
2023-05-19T02:02:06.065Z,102727.44
2023-05-19T02:04:50.993Z,102730.97
2023-05-19T02:07:46.711Z,102718.41
2023-05-19T02:10:22.868Z,102726.84
2023-05-19T02:12:54.223Z,102724.09
2023-05-19T02:15:36.388Z,102720.00
2023-05-19T02:18:04.719Z,102725.78
2023-05-19T02:20:31.825Z,102731.47
2023-05-19T02:22:58.506Z,102719.16
2023-05-19T02:25:25.122Z,102727.34
2023-05-19T02:27:52.746Z,102722.13
2023-05-19T02:30:19.265Z,102724.03
2023-05-19T02:32:48.654Z,102715.84
2023-05-19T02:35:15.665Z,102721.31
2023-05-19T02:37:42.248Z,102706.00
2023-05-19T02:40:09.353Z,102714.19
2023-05-19T02:42:35.888Z,102710.88
2023-05-19T02:45:02.436Z,102707.31
2023-05-19T02:47:29.017Z,102715.75
2023-05-19T02:49:55.665Z,102712.19
2023-05-19T02:52:22.292Z,102705.88
2023-05-19T02:54:48.879Z,102705.03
2023-05-19T02:57:15.621Z,102702.31
2023-05-19T02:59:42.866Z,102705.88
2023-05-19T03:02:09.602Z,102721.41
2023-05-19T03:04:41.745Z,102712.66
2023-05-19T03:07:16.341Z,102702.81
2023-05-19T03:09:43.095Z,102711.84
2023-05-19T03:12:09.913Z,102701.97
2023-05-19T03:14:39.329Z,102710.41
2023-05-19T03:17:08.062Z,102700.81
2023-05-19T03:19:34.805Z,102692.63
2023-05-19T03:22:01.403Z,102694.53
2023-05-19T03:24:28.018Z,102691.53
2023-05-19T03:26:54.594Z,102686.34
2023-05-19T03:29:21.558Z,102687.19
2023-05-19T03:31:48.149Z,102688.50
2023-05-19T03:34:14.887Z,102692.28
2023-05-19T03:36:41.528Z,102689.81
2023-05-19T03:39:08.110Z,102683.53
2023-05-19T03:41:34.943Z,102690.31
2023-05-19T03:44:01.612Z,102691.72
2023-05-19T03:46:28.460Z,102689.50
2023-05-19T03:48:55.074Z,102707.75
2023-05-19T03:51:21.633Z,102700.66
2023-05-19T03:53:48.805Z,102689.75
2023-05-19T03:56:18.084Z,102688.06
2023-05-19T03:58:45.129Z,102699.81
2023-05-19T04:01:11.851Z,102694.34
2023-05-19T04:03:38.496Z,102685.34
2023-05-19T04:06:05.274Z,102682.59
2023-05-19T04:08:32.163Z,102685.34
2023-05-19T04:10:58.873Z,102688.31
2023-05-19T04:13:25.488Z,102692.13
2023-05-19T04:15:52.235Z,102700.31
2023-05-19T04:18:19.051Z,102698.63
2023-05-19T04:20:45.558Z,102704.09
2023-05-19T04:23:12.111Z,102705.25
2023-05-19T04:25:40.811Z,102701.47
2023-05-19T04:28:07.721Z,102697.66
2023-05-19T04:30:34.673Z,102697.66
2023-05-19T04:33:03.197Z,102709.41
2023-05-19T04:35:29.961Z,102704.78
2023-05-19T04:37:56.979Z,102705.38
2023-05-19T04:40:23.910Z,102701.81
2023-05-19T04:42:54.192Z,102710.22
2023-05-19T04:45:20.771Z,102707.50
2023-05-19T04:47:48.291Z,102713.56
2023-05-19T04:50:16.377Z,102711.88
2023-05-19T04:52:45.638Z,102722.78
2023-05-19T04:55:13.201Z,102719.25
2023-05-19T04:57:40.238Z,102725.78
2023-05-19T05:00:09.121Z,102721.16
2023-05-19T05:02:36.232Z,102724.94
2023-05-19T05:05:02.957Z,102720.31
2023-05-19T05:07:31.641Z,102728.50
2023-05-19T05:09:58.971Z,102723.31
2023-05-19T05:12:25.999Z,102724.13
2023-05-19T05:14:52.797Z,102717.03
2023-05-19T05:17:20.574Z,102720.56
2023-05-19T05:19:48.562Z,102723.31
2023-05-19T05:22:15.862Z,102727.94
2023-05-19T05:24:42.721Z,102724.59
2023-05-19T05:27:10.237Z,102722.13
2023-05-19T05:29:37.001Z,102734.09
2023-05-19T05:32:03.738Z,102730.81
2023-05-19T05:34:30.578Z,102739.81
2023-05-19T05:36:57.132Z,102732.44
2023-05-19T05:39:23.744Z,102737.91
2023-05-19T05:41:50.376Z,102726.19
2023-05-19T05:44:16.938Z,102729.72
2023-05-19T05:46:43.797Z,102732.72
2023-05-19T05:49:12.461Z,102730.22
2023-05-19T05:51:39.779Z,102741.13
2023-05-19T05:54:07.375Z,102736.75
2023-05-19T05:56:34.437Z,102724.19
2023-05-19T05:59:02.134Z,102720.63
2023-05-19T06:01:30.480Z,102729.38
2023-05-19T06:03:57.013Z,102729.88
2023-05-19T06:06:23.604Z,102727.13
2023-05-19T06:08:50.122Z,102732.03
2023-05-19T06:11:16.901Z,102724.66
2023-05-19T06:13:43.471Z,102724.66
2023-05-19T06:16:10.189Z,102718.63
2023-05-19T06:18:36.932Z,102724.06
2023-05-19T06:21:03.840Z,102721.94
2023-05-19T06:23:31.095Z,102728.22
2023-05-19T06:25:57.798Z,102728.47
2023-05-19T06:28:24.384Z,102728.47
2023-05-19T06:30:50.997Z,102725.16
2023-05-19T06:33:17.586Z,102728.94
2023-05-19T06:35:44.291Z,102727.88
2023-05-19T06:38:10.958Z,102733.31
2023-05-19T06:40:37.755Z,102733.31
2023-05-19T06:43:04.921Z,102727.88
2023-05-19T06:45:31.701Z,102725.16
2023-05-19T06:47:58.579Z,102733.59
2023-05-19T06:50:25.684Z,102732.72
2023-05-19T06:52:52.482Z,102736.53
2023-05-19T06:55:19.473Z,102731.34
2023-05-19T06:57:46.067Z,102724.81
2023-05-19T07:00:15.873Z,102735.72
2023-05-19T07:02:44.662Z,102740.91
2023-05-19T07:05:11.233Z,102738.44
2023-05-19T07:07:37.913Z,102735.72
2023-05-19T07:10:05.077Z,102736.78
2023-05-19T07:12:31.633Z,102737.63
2023-05-19T07:14:58.261Z,102734.88
2023-05-19T07:17:24.968Z,102724.22
2023-05-19T07:19:51.572Z,102723.38
2023-05-19T07:22:18.189Z,102716.06
2023-05-19T07:24:45.027Z,102717.69
2023-05-19T07:27:11.720Z,102718.53
2023-05-19T07:29:38.353Z,102716.88
2023-05-19T07:32:05.410Z,102726.97
2023-05-19T07:34:32.046Z,102716.88
2023-05-19T07:36:58.667Z,102714.97
2023-05-19T07:39:27.858Z,102716.88
2023-05-19T07:41:55.782Z,102714.16
2023-05-19T07:44:22.348Z,102717.09
2023-05-19T07:46:49.027Z,102718.53
2023-05-19T07:49:15.625Z,102720.44
2023-05-19T07:51:42.299Z,102719.59
2023-05-19T07:54:09.303Z,102714.16
2023-05-19T07:56:35.986Z,102716.88
2023-05-19T07:59:03.583Z,102714.38
2023-05-19T08:01:32.213Z,102703.47
2023-05-19T08:03:58.935Z,102705.38
2023-05-19T08:06:25.927Z,102709.75
2023-05-19T08:08:54.212Z,102716.06
2023-05-19T08:11:21.598Z,102717.09
2023-05-19T08:13:49.266Z,102712.25
2023-05-19T08:16:16.416Z,102708.19
2023-05-19T08:18:43.375Z,102704.97
2023-05-19T08:21:10.001Z,102702.25
2023-05-19T08:23:37.511Z,102707.69
2023-05-19T08:26:04.529Z,102708.78
2023-05-19T08:28:31.443Z,102701.91
2023-05-19T08:30:58.146Z,102692.91
2023-05-19T08:33:24.824Z,102687.22
2023-05-19T08:35:51.370Z,102683.91
2023-05-19T08:38:17.917Z,102687.44
2023-05-19T08:40:47.569Z,102682.59
2023-05-19T08:43:15.562Z,102672.72
2023-05-19T08:45:48.307Z,102671.69
2023-05-19T08:48:17.991Z,102663.72
2023-05-19T08:50:53.086Z,102673.81
2023-05-19T08:53:33.795Z,102674.88
2023-05-19T08:56:24.225Z,102674.63
2023-05-19T08:58:51.593Z,102668.13
2023-05-19T09:01:19.520Z,102664.56
2023-05-19T09:03:49.578Z,102655.53
2023-05-19T09:06:16.437Z,102663.50
2023-05-19T09:08:43.835Z,102656.38
2023-05-19T09:11:10.926Z,102653.63
2023-05-19T09:13:37.818Z,102645.47
2023-05-19T09:16:04.722Z,102655.31
2023-05-19T09:18:31.806Z,102649.59
2023-05-19T09:21:00.258Z,102649.59
2023-05-19T09:23:29.613Z,102655.06
2023-05-19T09:25:57.617Z,102660.50
2023-05-19T09:28:24.122Z,102653.16
2023-05-19T09:30:59.781Z,102663.84
2023-05-19T09:33:26.395Z,102657.03
2023-05-19T09:35:55.242Z,102654.56
2023-05-19T09:38:23.744Z,102663.59
2023-05-19T09:40:51.502Z,102659.78
2023-05-19T09:43:18.188Z,102649.94
2023-05-19T09:45:44.833Z,102655.16
2023-05-19T09:48:11.413Z,102656.00
2023-05-19T09:50:38.224Z,102645.91
2023-05-19T09:53:05.048Z,102654.91
2023-05-19T09:55:33.478Z,102647.56
2023-05-19T09:58:03.787Z,102646.47
2023-05-19T10:00:32.870Z,102653.59
2023-05-19T10:03:00.529Z,102645.16
2023-05-19T10:05:27.600Z,102640.78
2023-05-19T10:07:55.137Z,102646.81
2023-05-19T10:10:22.852Z,102646.81
2023-05-19T10:12:49.735Z,102639.44
2023-05-19T10:15:18.924Z,102642.19
2023-05-19T10:17:46.560Z,102643.03
2023-05-19T10:20:15.470Z,102638.41
2023-05-19T10:22:44.236Z,102634.84
2023-05-19T10:25:11.689Z,102637.56
2023-05-19T10:27:44.553Z,102637.31
2023-05-19T10:30:16.494Z,102643.59
2023-05-19T10:32:45.004Z,102633.78
2023-05-19T10:35:47.198Z,102635.41
2023-05-19T10:38:22.997Z,102636.25
2023-05-19T10:41:11.732Z,102627.81
2023-05-19T10:44:04.581Z,102620.47
2023-05-19T10:46:31.795Z,102631.94
2023-05-19T10:48:59.328Z,102621.84
2023-05-19T10:51:32.142Z,102623.25
2023-05-19T10:54:02.727Z,102625.16
2023-05-19T10:56:33.005Z,102627.06
2023-05-19T10:58:59.846Z,102619.72
2023-05-19T11:01:34.571Z,102620.53
2023-05-19T11:04:10.916Z,102617.31
2023-05-19T11:06:38.780Z,102611.88
2023-05-19T11:09:16.742Z,102605.59
2023-05-19T11:11:53.984Z,102613.50
2023-05-19T11:14:23.137Z,102600.69
2023-05-19T11:16:51.762Z,102603.19
2023-05-19T11:19:33.149Z,102604.56
2023-05-19T11:22:11.438Z,102607.31
2023-05-19T11:24:42.028Z,102610.03
2023-05-19T11:27:19.894Z,102595.34
2023-05-19T11:29:48.410Z,102598.06
2023-05-19T11:32:16.105Z,102598.88
2023-05-19T11:34:44.800Z,102598.63
2023-05-19T11:37:12.299Z,102598.06
2023-05-19T11:39:39.679Z,102594.00
2023-05-19T11:42:06.674Z,102594.00
2023-05-19T11:44:33.198Z,102596.72
2023-05-19T11:47:00.259Z,102599.44
2023-05-19T11:49:29.407Z,102600.06
2023-05-19T11:51:56.336Z,102596.25
2023-05-19T11:54:34.907Z,102583.44
2023-05-19T11:57:03.439Z,102589.72
2023-05-19T11:59:33.451Z,102587.59
2023-05-19T12:02:24.941Z,102591.13
2023-05-19T12:04:52.340Z,102574.53
2023-05-19T12:07:23.060Z,102581.63
2023-05-19T12:09:51.722Z,102568.81
2023-05-19T12:12:19.801Z,102570.22
2023-05-19T12:14:47.472Z,102569.97
2023-05-19T12:17:24.116Z,102580.06
2023-05-19T12:19:51.336Z,102569.69
2023-05-19T12:22:19.186Z,102576.81
2023-05-19T12:24:47.290Z,102560.44
2023-05-19T12:27:19.630Z,102562.91
2023-05-19T12:29:53.904Z,102572.25
2023-05-19T12:32:27.852Z,102567.63
2023-05-19T12:34:58.093Z,102564.88
2023-05-19T12:37:27.978Z,102570.13
2023-05-19T12:39:56.294Z,102570.66
2023-05-19T12:42:23.781Z,102567.72
2023-05-19T12:44:52.654Z,102565.53
2023-05-19T12:47:20.494Z,102565.31
2023-05-19T12:49:57.997Z,102559.03
2023-05-19T12:52:24.884Z,102563.41
2023-05-19T12:55:08.081Z,102559.31
2023-05-19T12:57:36.261Z,102549.81
2023-05-19T13:00:25.757Z,102552.28
2023-05-19T13:03:05.298Z,102548.22
2023-05-19T13:05:34.040Z,102552.63
2023-05-19T13:08:03.023Z,102543.06
2023-05-19T13:10:31.276Z,102539.25
2023-05-19T13:13:00.155Z,102540.66
2023-05-19T13:15:34.280Z,102532.47
2023-05-19T13:18:03.654Z,102534.97
2023-05-19T13:20:30.529Z,102530.06
2023-05-19T13:22:57.495Z,102536.34
2023-05-19T13:25:24.306Z,102532.28
2023-05-19T13:27:51.092Z,102526.31
2023-05-19T13:30:19.320Z,102527.16
2023-05-19T13:32:46.276Z,102530.44
2023-05-19T13:35:14.293Z,102521.19
2023-05-19T13:37:43.859Z,102527.19
2023-05-19T13:40:11.606Z,102522.31
2023-05-19T13:42:38.294Z,102532.97
2023-05-19T13:45:05.538Z,102517.19
2023-05-19T13:47:32.245Z,102515.25
2023-05-19T13:49:59.060Z,102508.47
2023-05-19T13:52:27.496Z,102512.84
2023-05-19T13:54:56.667Z,102510.69
2023-05-19T13:57:26.499Z,102509.66
2023-05-19T14:00:02.686Z,102509.38
2023-05-19T14:02:30.519Z,102518.16
2023-05-19T14:04:57.601Z,102509.69
2023-05-19T14:07:25.435Z,102510.50
2023-05-19T14:09:52.575Z,102507.28
2023-05-19T14:12:20.233Z,102510.56
2023-05-19T14:14:50.135Z,102510.31
2023-05-19T14:17:16.819Z,102511.97
2023-05-19T14:19:43.389Z,102501.59
2023-05-19T14:22:10.147Z,102510.34
2023-05-19T14:24:37.298Z,102495.63
2023-05-19T14:27:04.010Z,102498.91
2023-05-19T14:29:34.069Z,102490.44
2023-05-19T14:32:00.902Z,102499.81
2023-05-19T14:34:27.578Z,102490.00
2023-05-19T14:36:54.161Z,102497.44
2023-05-19T14:39:21.099Z,102497.16
2023-05-19T14:41:49.396Z,102491.19
2023-05-19T14:44:16.039Z,102489.84
2023-05-19T14:46:42.645Z,102492.88
2023-05-19T14:49:09.357Z,102493.44
2023-05-19T14:51:36.032Z,102496.75
2023-05-19T14:54:02.573Z,102497.88
2023-05-19T14:56:29.183Z,102486.66
2023-05-19T14:58:56.479Z,102489.97
2023-05-19T15:01:23.224Z,102482.06
2023-05-19T15:03:49.926Z,102486.19
2023-05-19T15:06:16.929Z,102480.47
2023-05-19T15:08:43.586Z,102480.81
2023-05-19T15:11:10.161Z,102480.53
2023-05-19T15:13:36.745Z,102481.09
2023-05-19T15:16:16.353Z,102475.94
2023-05-19T15:18:43.743Z,102475.66
2023-05-19T15:21:10.380Z,102475.13
2023-05-19T15:23:36.960Z,102472.13
2023-05-19T15:26:03.866Z,102474.63
2023-05-19T15:28:30.559Z,102473.25
2023-05-19T15:30:57.245Z,102471.09
2023-05-19T15:33:24.960Z,102470.56
2023-05-19T15:35:52.274Z,102475.75
2023-05-19T15:38:19.522Z,102473.31
2023-05-19T15:40:46.722Z,102460.47
2023-05-19T15:43:13.576Z,102461.88
2023-05-19T15:45:40.176Z,102470.63
2023-05-19T15:48:06.995Z,102473.09
2023-05-19T15:50:33.914Z,102473.66
2023-05-19T15:53:00.738Z,102469.56
2023-05-19T15:55:27.316Z,102462.19
2023-05-19T15:57:54.014Z,102462.47
2023-05-19T16:00:20.755Z,102464.97
2023-05-19T16:02:47.443Z,102458.13
2023-05-19T16:05:14.218Z,102462.53
2023-05-19T16:07:42.184Z,102458.69
2023-05-19T16:10:09.346Z,102461.97
2023-05-19T16:12:36.754Z,102453.22
2023-05-19T16:15:03.862Z,102457.59
2023-05-19T16:17:30.684Z,102456.53
2023-05-19T16:19:57.410Z,102439.00
2023-05-19T16:22:24.907Z,102443.16
2023-05-19T16:24:52.181Z,102447.53
2023-05-19T16:27:19.093Z,102439.88
2023-05-19T16:29:45.817Z,102439.59
2023-05-19T16:32:13.085Z,102437.41
2023-05-19T16:34:40.174Z,102444.53
2023-05-19T16:37:06.876Z,102436.09
2023-05-19T16:39:37.000Z,102436.91
2023-05-19T16:42:06.403Z,102439.13
2023-05-19T16:44:32.994Z,102435.28
2023-05-19T16:46:59.577Z,102426.00
2023-05-19T16:49:27.603Z,102437.47
2023-05-19T16:51:54.284Z,102445.44
2023-05-19T16:54:21.368Z,102449.81
2023-05-19T16:56:48.008Z,102439.69
2023-05-19T16:59:14.583Z,102444.06
2023-05-19T17:01:41.339Z,102439.16
2023-05-19T17:04:08.270Z,102435.31
2023-05-19T17:06:35.098Z,102440.81
2023-05-19T17:09:02.169Z,102435.03
2023-05-19T17:11:28.834Z,102440.53
2023-05-19T17:13:55.682Z,102451.75
2023-05-19T17:16:23.496Z,102438.06
2023-05-19T17:18:50.218Z,102451.75
2023-05-19T17:21:17.632Z,102441.38
2023-05-19T17:23:44.615Z,102444.94
2023-05-19T17:26:11.523Z,102440.03
2023-05-19T17:28:38.174Z,102445.50
2023-05-19T17:31:15.084Z,102450.69
2023-05-19T17:33:41.847Z,102448.78
2023-05-19T17:36:09.132Z,102440.56
2023-05-19T17:38:40.094Z,102446.88
2023-05-19T17:41:10.846Z,102450.41
2023-05-19T17:43:38.145Z,102441.94
2023-05-19T17:46:04.957Z,102443.88
2023-05-19T17:48:32.106Z,102459.19
2023-05-19T17:50:59.258Z,102464.41
2023-05-19T17:53:26.358Z,102458.94
2023-05-19T17:55:59.496Z,102458.09
2023-05-19T17:58:26.607Z,102449.88
2023-05-19T18:00:54.293Z,102452.38
2023-05-19T18:03:22.249Z,102461.66
2023-05-19T18:05:50.339Z,102450.44
2023-05-19T18:08:17.390Z,102457.84
2023-05-19T18:10:44.523Z,102451.28
2023-05-19T18:13:13.975Z,102467.72
2023-05-19T18:15:40.771Z,102460.31
2023-05-19T18:18:07.807Z,102466.59
2023-05-19T18:20:34.941Z,102465.53
2023-05-19T18:23:02.810Z,102465.78
2023-05-19T18:25:29.436Z,102468.28
2023-05-19T18:27:56.087Z,102470.16
2023-05-19T18:30:23.336Z,102472.09
2023-05-19T18:32:49.968Z,102469.34
2023-05-19T18:35:16.874Z,102476.75
2023-05-19T18:37:43.541Z,102485.78
2023-05-19T18:40:10.550Z,102477.56
2023-05-19T18:42:37.773Z,102474.00
2023-05-19T18:45:04.896Z,102479.47
2023-05-19T18:47:31.420Z,102484.72
2023-05-19T18:49:58.185Z,102481.97
2023-05-19T18:52:26.684Z,102489.34
2023-05-19T18:54:53.594Z,102485.78
2023-05-19T18:57:20.546Z,102492.38
2023-05-19T18:59:47.238Z,102484.97
2023-05-19T19:02:13.830Z,102498.66
2023-05-19T19:04:40.371Z,102492.38
2023-05-19T19:07:06.920Z,102495.91
2023-05-19T19:09:33.912Z,102495.91
2023-05-19T19:12:00.426Z,102500.31
2023-05-19T19:14:27.113Z,102495.91
2023-05-19T19:16:53.688Z,102488.81
2023-05-19T19:19:20.648Z,102497.03
2023-05-19T19:21:47.248Z,102495.38
2023-05-19T19:24:13.834Z,102507.41
2023-05-19T19:26:40.450Z,102508.22
2023-05-19T19:29:06.965Z,102511.81
2023-05-19T19:31:33.611Z,102506.34
2023-05-19T19:34:03.630Z,102521.94
2023-05-19T19:36:30.374Z,102524.94
2023-05-19T19:38:56.951Z,102525.75
2023-05-19T19:41:23.569Z,102528.50
2023-05-19T19:43:51.031Z,102520.56
2023-05-19T19:46:17.721Z,102524.13
2023-05-19T19:48:44.313Z,102514.50
2023-05-19T19:51:10.912Z,102516.16
2023-05-19T19:53:37.474Z,102523.56
2023-05-19T19:56:05.018Z,102524.66
2023-05-19T19:58:31.758Z,102533.69
2023-05-19T20:00:59.896Z,102530.13
2023-05-19T20:03:27.022Z,102532.03
2023-05-19T20:05:55.854Z,102537.81
2023-05-19T20:08:23.474Z,102540.53
2023-05-19T20:10:50.688Z,102529.59
2023-05-19T20:13:18.375Z,102533.41
2023-05-19T20:15:46.145Z,102538.88
2023-05-19T20:18:13.609Z,102536.13
2023-05-19T20:20:41.030Z,102546.53
2023-05-19T20:23:07.791Z,102546.28
2023-05-19T20:25:50.146Z,102544.88
2023-05-19T20:28:25.808Z,102547.63
2023-05-19T20:30:52.480Z,102559.66
2023-05-19T20:33:19.033Z,102549.53
2023-05-19T20:35:45.885Z,102549.81
2023-05-19T20:38:12.451Z,102546.25
2023-05-19T20:40:39.066Z,102552.78
2023-05-19T20:43:05.737Z,102557.72
2023-05-19T20:45:32.629Z,102549.53
2023-05-19T20:47:59.686Z,102557.16
2023-05-19T20:50:26.310Z,102556.09
2023-05-19T20:52:52.854Z,102557.16
2023-05-19T20:55:19.531Z,102553.59
2023-05-19T20:57:46.248Z,102545.66
2023-05-19T21:00:13.472Z,102543.75
2023-05-19T21:02:40.135Z,102545.66
2023-05-19T21:05:07.099Z,102544.84
2023-05-19T21:07:33.693Z,102549.75
2023-05-19T21:10:00.335Z,102547.28
2023-05-19T21:12:29.056Z,102541.81
2023-05-19T21:14:55.651Z,102553.00
2023-05-19T21:17:22.389Z,102554.09
2023-05-19T21:19:50.559Z,102552.47
2023-05-19T21:22:17.572Z,102564.25
2023-05-19T21:24:44.176Z,102548.91
2023-05-19T21:27:10.786Z,102549.16
2023-05-19T21:29:37.348Z,102556.56
2023-05-19T21:32:04.178Z,102558.72
2023-05-19T21:34:30.690Z,102553.25
2023-05-19T21:36:57.237Z,102552.38
2023-05-19T21:39:23.798Z,102558.97
2023-05-19T21:41:51.387Z,102552.38
2023-05-19T21:44:18.065Z,102559.22
2023-05-19T21:46:44.608Z,102565.53
2023-05-19T21:49:11.183Z,102561.16
2023-05-19T21:51:37.796Z,102555.09
2023-05-19T21:54:04.340Z,102565.22
2023-05-19T21:56:31.187Z,102555.38
2023-05-19T21:58:57.878Z,102550.72
2023-05-19T22:01:24.582Z,102560.84
2023-05-19T22:03:51.164Z,102559.19
2023-05-19T22:06:17.839Z,102561.09
2023-05-19T22:08:44.382Z,102555.06
2023-05-19T22:11:10.958Z,102552.34
2023-05-19T22:13:41.063Z,102557.00
2023-05-19T22:16:08.158Z,102556.16
2023-05-19T22:18:34.869Z,102558.06
2023-05-19T22:21:01.979Z,102561.06
2023-05-19T22:23:28.713Z,102556.41
2023-05-19T22:25:55.464Z,102554.78
2023-05-19T22:28:22.061Z,102566.81
2023-05-19T22:30:48.580Z,102560.25
2023-05-19T22:33:15.346Z,102563.25
2023-05-19T22:35:41.878Z,102563.25
2023-05-19T22:38:10.500Z,102564.34
2023-05-19T22:40:37.476Z,102570.91
2023-05-19T22:43:04.079Z,102572.81
2023-05-19T22:45:31.976Z,102579.94
2023-05-19T22:47:58.794Z,102570.31
2023-05-19T22:50:25.775Z,102570.31
2023-05-19T22:52:52.393Z,102573.06
2023-05-19T22:55:19.013Z,102571.41
2023-05-19T22:57:45.653Z,102570.59
2023-05-19T23:00:18.428Z,102570.03
2023-05-19T23:02:45.039Z,102569.22
2023-05-19T23:05:11.640Z,102570.31
2023-05-19T23:07:38.277Z,102567.56
2023-05-19T23:10:07.339Z,102568.38
2023-05-19T23:12:33.980Z,102568.66
2023-05-19T23:15:00.760Z,102568.66
2023-05-19T23:17:27.528Z,102563.44
2023-05-19T23:19:54.124Z,102561.78
2023-05-19T23:22:20.832Z,102558.22
2023-05-19T23:24:47.696Z,102562.88
2023-05-19T23:27:14.246Z,102558.47
2023-05-19T23:29:40.802Z,102553.28
2023-05-19T23:32:07.808Z,102554.91
2023-05-19T23:34:34.356Z,102560.66
2023-05-19T23:37:00.935Z,102553.56
2023-05-19T23:39:27.611Z,102571.84
2023-05-19T23:41:54.241Z,102556.53
2023-05-19T23:44:20.938Z,102556.53
2023-05-19T23:46:47.558Z,102559.53
2023-05-19T23:49:14.608Z,102554.06
2023-05-19T23:51:41.398Z,102557.06
2023-05-19T23:54:07.969Z,102552.66
2023-05-19T23:56:34.563Z,102548.28
2023-05-19T23:59:01.190Z,102549.94
